Time;durP1;ratioP1;P1;durP2;ratioP2;P2;SDS_P1;SDS_P2;PMS_P1;PMS_P2;Temp;Humidity;BMP_temperature;BMP_pressure;BME280_temperature;BME280_humidity;BME280_pressure;Samples;Min_cycle;Max_cycle;Signal;HPM_P1;HPM_P2
2021/10/19 00:01:19;;;;;;;23.35;14.85;;;9.30;99.90;;;;;;5052206;28;20021;-66
2021/10/19 00:03:45;;;;;;;20.88;13.27;;;9.50;99.90;;;;;;5051518;28;20033;-66
2021/10/19 00:06:12;;;;;;;18.77;13.15;;;9.50;99.90;;;;;;5052150;28;20082;-67
2021/10/19 00:08:37;;;;;;;19.27;14.15;;;9.50;99.90;;;;;;5052490;28;20037;-67
2021/10/19 00:11:03;;;;;;;21.75;14.10;;;9.50;99.90;;;;;;5052881;28;20032;-67
2021/10/19 00:13:29;;;;;;;20.83;14.25;;;9.40;99.90;;;;;;5051150;28;20358;-66
2021/10/19 00:15:55;;;;;;;21.98;14.23;;;9.40;99.90;;;;;;5051249;28;20418;-67
2021/10/19 00:18:21;;;;;;;22.92;15.23;;;9.40;99.90;;;;;;5051636;28;20024;-68
2021/10/19 00:20:47;;;;;;;27.70;14.43;;;9.40;99.90;;;;;;5050706;28;20025;-67
2021/10/19 00:23:13;;;;;;;20.52;13.45;;;9.40;99.90;;;;;;5052458;28;20111;-67
2021/10/19 00:25:38;;;;;;;23.95;15.02;;;9.40;99.90;;;;;;5051771;28;20049;-67
2021/10/19 00:28:04;;;;;;;19.65;13.98;;;9.40;99.90;;;;;;5051509;28;20131;-66
2021/10/19 00:30:31;;;;;;;28.70;15.68;;;9.40;99.90;;;;;;5050344;28;20039;-67
2021/10/19 00:32:57;;;;;;;20.25;14.27;;;9.40;99.90;;;;;;5052502;28;20156;-67
2021/10/19 00:35:22;;;;;;;22.70;15.32;;;9.40;99.90;;;;;;5049701;28;20048;-67
2021/10/19 00:37:48;;;;;;;25.33;15.15;;;9.40;99.90;;;;;;5035618;28;20399;-67
2021/10/19 00:40:14;;;;;;;24.33;14.75;;;9.50;99.90;;;;;;5033852;28;20421;-67
2021/10/19 00:42:40;;;;;;;23.20;14.15;;;9.60;99.90;;;;;;5032607;28;20034;-67
2021/10/19 00:45:07;;;;;;;23.75;15.13;;;9.50;99.90;;;;;;5032489;28;20086;-67
2021/10/19 00:47:34;;;;;;;20.58;13.38;;;9.50;99.90;;;;;;5031759;28;20037;-67
2021/10/19 00:50:00;;;;;;;24.38;14.55;;;9.50;99.90;;;;;;5031316;28;20033;-67
2021/10/19 00:52:26;;;;;;;21.90;14.30;;;9.50;99.90;;;;;;5030904;28;20033;-73
2021/10/19 00:54:53;;;;;;;26.60;14.77;;;9.50;99.90;;;;;;5031865;28;20179;-66
2021/10/19 00:57:20;;;;;;;21.40;13.57;;;9.50;99.90;;;;;;5030916;28;20040;-65
2021/10/19 00:59:47;;;;;;;23.23;14.27;;;9.50;99.90;;;;;;5029997;28;20452;-66
2021/10/19 01:02:14;;;;;;;23.25;15.07;;;9.40;99.90;;;;;;5030931;28;20205;-66
2021/10/19 01:04:41;;;;;;;20.45;13.93;;;9.50;99.90;;;;;;5031700;28;20048;-65
2021/10/19 01:07:09;;;;;;;27.08;14.13;;;9.50;99.90;;;;;;5030604;28;20057;-66
2021/10/19 01:09:37;;;;;;;25.77;14.45;;;9.50;99.90;;;;;;5029466;28;20025;-66
2021/10/19 01:12:07;;;;;;;21.67;13.55;;;9.40;99.90;;;;;;5030559;28;20037;-66
2021/10/19 01:14:33;;;;;;;19.38;13.68;;;9.40;99.90;;;;;;5031468;28;20036;-66
2021/10/19 01:16:59;;;;;;;22.05;13.60;;;9.40;99.90;;;;;;5031617;28;20440;-66
2021/10/19 01:19:25;;;;;;;18.95;13.43;;;9.30;99.90;;;;;;5030257;28;20443;-66
2021/10/19 01:21:57;;;;;;;18.25;13.20;;;9.40;99.90;;;;;;5029675;28;20467;-66
2021/10/19 01:24:23;;;;;;;20.23;13.52;;;9.40;99.90;;;;;;5030256;28;20029;-66
2021/10/19 01:26:49;;;;;;;20.02;14.38;;;9.30;99.90;;;;;;5029643;28;20060;-66
2021/10/19 01:29:15;;;;;;;21.65;14.52;;;9.30;99.90;;;;;;5063355;28;20041;-68
2021/10/19 01:31:49;;;;;;;21.35;13.35;;;9.30;99.90;;;;;;5029416;28;20113;-67
2021/10/19 01:34:15;;;;;;;20.60;13.88;;;9.30;99.90;;;;;;5032057;28;20262;-66
2021/10/19 01:36:42;;;;;;;18.25;13.02;;;9.30;99.90;;;;;;5030606;28;20459;-66
2021/10/19 01:39:08;;;;;;;21.98;14.60;;;9.30;99.90;;;;;;5031639;28;20026;-66
2021/10/19 01:41:34;;;;;;;22.70;14.65;;;9.20;99.90;;;;;;5030779;28;20047;-67
2021/10/19 01:44:00;;;;;;;21.67;14.30;;;9.30;99.90;;;;;;5031040;28;20029;-66
2021/10/19 01:46:26;;;;;;;25.02;14.30;;;9.30;99.90;;;;;;5031409;28;20105;-66
2021/10/19 01:48:52;;;;;;;21.92;13.48;;;9.40;99.90;;;;;;5029367;28;20585;-66
2021/10/19 01:51:18;;;;;;;19.33;13.40;;;9.40;99.90;;;;;;5029907;28;20092;-65
2021/10/19 01:53:45;;;;;;;22.27;14.07;;;9.50;99.90;;;;;;5030475;28;20032;-66
2021/10/19 01:56:11;;;;;;;20.15;14.27;;;9.40;99.90;;;;;;5031284;28;20156;-66
2021/10/19 01:58:37;;;;;;;21.00;14.02;;;9.30;99.90;;;;;;5030516;28;20038;-66
2021/10/19 02:01:03;;;;;;;23.65;15.48;;;9.40;99.90;;;;;;5031585;28;20038;-66
2021/10/19 02:03:29;;;;;;;20.63;14.15;;;9.40;99.90;;;;;;5029733;28;20120;-67
2021/10/19 02:05:54;;;;;;;22.92;14.98;;;9.30;99.90;;;;;;5029325;28;20064;-67
2021/10/19 02:08:21;;;;;;;25.05;14.90;;;9.30;99.90;;;;;;5030964;28;20022;-66
2021/10/19 02:10:47;;;;;;;23.60;16.15;;;9.30;99.90;;;;;;5029138;28;20029;-66
2021/10/19 02:13:13;;;;;;;23.67;14.18;;;9.20;99.90;;;;;;5030436;28;20370;-66
2021/10/19 02:15:39;;;;;;;20.85;15.05;;;9.30;99.90;;;;;;5029875;28;20084;-66
2021/10/19 02:18:07;;;;;;;23.40;15.52;;;9.20;99.90;;;;;;5029811;28;20034;-66
2021/10/19 02:20:33;;;;;;;22.15;15.30;;;9.20;99.90;;;;;;5030869;28;20378;-74
2021/10/19 02:22:59;;;;;;;23.75;14.70;;;9.30;99.90;;;;;;5029389;28;20377;-66
2021/10/19 02:25:26;;;;;;;24.48;15.13;;;9.40;99.90;;;;;;5030857;28;20057;-66
2021/10/19 02:27:52;;;;;;;26.33;15.70;;;9.40;99.90;;;;;;5030553;28;20030;-66
2021/10/19 02:30:18;;;;;;;23.48;16.13;;;9.50;99.90;;;;;;5029675;28;20030;-66
2021/10/19 02:32:45;;;;;;;24.50;15.38;;;9.40;99.90;;;;;;5029960;28;20536;-66
2021/10/19 02:35:16;;;;;;;25.92;15.30;;;9.30;99.90;;;;;;5030789;28;20327;-66
2021/10/19 02:37:43;;;;;;;26.43;17.30;;;9.30;99.90;;;;;;5030180;28;20022;-67
2021/10/19 02:40:11;;;;;;;22.98;15.60;;;9.30;99.90;;;;;;5030897;28;20025;-67
2021/10/19 02:42:37;;;;;;;22.33;15.23;;;9.40;99.90;;;;;;5029808;28;20471;-69
2021/10/19 02:45:07;;;;;;;23.70;16.15;;;9.40;99.90;;;;;;5030887;28;20088;-66
2021/10/19 02:47:32;;;;;;;26.50;16.77;;;9.50;99.90;;;;;;5028830;28;20079;-74
2021/10/19 02:49:58;;;;;;;24.40;16.35;;;9.50;99.90;;;;;;5028774;28;20025;-67
2021/10/19 02:52:24;;;;;;;26.63;17.23;;;9.40;99.90;;;;;;5030529;28;20037;-66
2021/10/19 02:54:51;;;;;;;37.70;18.45;;;9.50;99.90;;;;;;5030867;28;20030;-66
2021/10/19 02:57:21;;;;;;;24.02;16.65;;;9.50;99.90;;;;;;5032945;28;20034;-65
2021/10/19 02:59:47;;;;;;;23.77;16.85;;;9.40;99.90;;;;;;5034121;28;20026;-66
2021/10/19 03:02:13;;;;;;;26.17;16.90;;;9.30;99.90;;;;;;5033042;28;20168;-65
2021/10/19 03:04:39;;;;;;;23.92;16.95;;;9.30;99.90;;;;;;5033335;28;20482;-66
2021/10/19 03:07:05;;;;;;;26.85;18.30;;;9.20;99.90;;;;;;5033121;28;20036;-66
2021/10/19 03:09:30;;;;;;;29.85;17.27;;;9.20;99.90;;;;;;5032913;28;20091;-66
2021/10/19 03:11:56;;;;;;;29.17;18.10;;;9.40;99.90;;;;;;5033208;28;20075;-65
2021/10/19 03:14:21;;;;;;;26.50;16.95;;;9.50;99.90;;;;;;5033059;28;20084;-66
2021/10/19 03:16:47;;;;;;;27.70;17.42;;;9.30;99.90;;;;;;5033252;28;20487;-66
2021/10/19 03:19:13;;;;;;;28.88;18.50;;;9.40;99.90;;;;;;5034164;28;20473;-66
2021/10/19 03:21:38;;;;;;;26.30;17.65;;;9.40;99.90;;;;;;5032110;28;20065;-72
2021/10/19 03:24:04;;;;;;;24.25;16.98;;;9.40;99.90;;;;;;5033847;28;20375;-68
2021/10/19 03:26:30;;;;;;;28.10;18.48;;;9.30;99.90;;;;;;5032107;28;20431;-65
2021/10/19 03:28:56;;;;;;;27.52;17.30;;;9.20;99.90;;;;;;5031678;28;20128;-65
2021/10/19 03:31:22;;;;;;;25.15;16.58;;;9.40;99.90;;;;;;5033748;28;20348;-66
2021/10/19 03:33:47;;;;;;;24.20;16.70;;;9.40;99.90;;;;;;5032751;28;20463;-66
2021/10/19 03:36:13;;;;;;;26.65;18.42;;;9.50;99.90;;;;;;5033850;28;20400;-67
2021/10/19 03:38:39;;;;;;;31.75;18.13;;;9.30;99.90;;;;;;5031848;28;20123;-74
2021/10/19 03:41:06;;;;;;;29.38;17.98;;;9.20;99.90;;;;;;5033708;28;20382;-67
2021/10/19 03:43:33;;;;;;;29.83;19.60;;;9.30;99.90;;;;;;5032186;28;20159;-65
2021/10/19 03:45:59;;;;;;;28.50;18.58;;;9.30;99.90;;;;;;5031439;28;20054;-65
2021/10/19 03:48:25;;;;;;;26.13;17.92;;;9.30;99.90;;;;;;5033397;28;20059;-65
2021/10/19 03:50:51;;;;;;;25.95;17.40;;;9.30;99.90;;;;;;5031287;28;20030;-66
2021/10/19 03:53:17;;;;;;;25.02;18.58;;;9.30;99.90;;;;;;5031775;28;20032;-65
2021/10/19 03:55:43;;;;;;;26.33;18.23;;;9.30;99.90;;;;;;5031206;28;20025;-66
2021/10/19 03:58:10;;;;;;;27.52;17.88;;;9.30;99.90;;;;;;5032041;28;20033;-67
2021/10/19 04:00:36;;;;;;;25.25;18.13;;;9.20;99.90;;;;;;5033321;28;20112;-66
2021/10/19 04:03:01;;;;;;;27.65;19.50;;;9.10;99.90;;;;;;5032463;28;20109;-65
2021/10/19 04:05:27;;;;;;;27.40;18.58;;;9.20;99.90;;;;;;5032405;28;20384;-66
2021/10/19 04:07:53;;;;;;;30.45;20.13;;;9.30;99.90;;;;;;5032234;28;20033;-66
2021/10/19 04:10:19;;;;;;;27.80;18.98;;;9.20;99.90;;;;;;5033259;28;20026;-66
2021/10/19 04:12:45;;;;;;;32.47;18.95;;;9.30;99.90;;;;;;5030908;28;20037;-65
2021/10/19 04:15:10;;;;;;;26.55;18.15;;;9.20;99.90;;;;;;5032920;28;20364;-65
2021/10/19 04:17:36;;;;;;;32.90;21.75;;;9.20;99.90;;;;;;5031626;28;20029;-66
2021/10/19 04:20:03;;;;;;;28.70;19.33;;;9.20;99.90;;;;;;5031886;28;20052;-65
2021/10/19 04:22:29;;;;;;;29.25;19.23;;;9.30;99.90;;;;;;5032977;28;20034;-65
2021/10/19 04:24:54;;;;;;;32.22;19.02;;;9.20;99.90;;;;;;5030602;28;20353;-65
2021/10/19 04:27:21;;;;;;;30.45;20.27;;;9.20;99.90;;;;;;5032934;28;20025;-66
2021/10/19 04:29:47;;;;;;;29.00;19.42;;;9.10;99.90;;;;;;5030684;28;20029;-65
2021/10/19 04:32:13;;;;;;;31.17;19.88;;;9.10;99.90;;;;;;5032589;28;20045;-65
2021/10/19 04:34:39;;;;;;;28.15;19.30;;;9.00;99.90;;;;;;5040705;28;20029;-72
2021/10/19 04:37:05;;;;;;;28.33;19.50;;;9.10;99.90;;;;;;5050291;28;20127;-64
2021/10/19 04:39:31;;;;;;;34.70;19.33;;;9.00;99.90;;;;;;5052420;28;20021;-64
2021/10/19 04:41:57;;;;;;;31.95;19.25;;;9.00;99.90;;;;;;5049911;28;20029;-65
2021/10/19 04:44:23;;;;;;;30.45;19.77;;;9.00;99.90;;;;;;5052150;28;20083;-65
2021/10/19 04:46:49;;;;;;;30.75;19.77;;;9.10;99.90;;;;;;5049641;28;20120;-64
2021/10/19 04:49:15;;;;;;;34.13;20.42;;;9.10;99.90;;;;;;5052423;28;20060;-65
2021/10/19 04:51:41;;;;;;;30.80;21.13;;;9.30;99.90;;;;;;5050102;28;20040;-72
2021/10/19 04:54:07;;;;;;;30.17;18.85;;;9.20;99.90;;;;;;5052198;28;20084;-65
2021/10/19 04:56:33;;;;;;;34.17;19.90;;;9.30;99.90;;;;;;5051040;28;20029;-64
2021/10/19 04:58:59;;;;;;;30.92;19.33;;;9.20;99.90;;;;;;5048339;28;20385;-65
2021/10/19 05:01:25;;;;;;;32.42;20.30;;;9.30;99.90;;;;;;5052563;28;20210;-64
2021/10/19 05:03:51;;;;;;;34.63;20.17;;;9.20;99.90;;;;;;5050048;28;20025;-65
2021/10/19 05:06:18;;;;;;;29.52;19.60;;;9.20;99.90;;;;;;5052266;28;20439;-64
2021/10/19 05:08:44;;;;;;;35.83;21.77;;;9.30;99.90;;;;;;5049005;28;20033;-77
2021/10/19 05:11:09;;;;;;;28.58;18.60;;;9.10;99.90;;;;;;5048644;28;20029;-67
2021/10/19 05:13:35;;;;;;;32.42;19.42;;;9.10;99.90;;;;;;5051257;28;20037;-68
2021/10/19 05:16:01;;;;;;;29.25;19.65;;;9.10;99.90;;;;;;5050841;28;20796;-65
2021/10/19 05:18:27;;;;;;;28.58;18.48;;;9.20;99.90;;;;;;5042369;28;20446;-65
2021/10/19 05:20:53;;;;;;;33.15;20.83;;;9.20;99.90;;;;;;5047002;28;20067;-67
2021/10/19 05:23:19;;;;;;;31.98;19.33;;;9.10;99.90;;;;;;5051342;28;20066;-60
2021/10/19 05:25:44;;;;;;;28.92;18.35;;;10.70;99.90;;;;;;5050053;28;20478;-58
2021/10/19 05:28:10;;;;;;;26.50;17.98;;;10.60;99.90;;;;;;5039312;28;20075;-66
2021/10/19 05:30:36;;;;;;;27.90;16.83;;;10.30;99.90;;;;;;5035943;28;20055;-65
2021/10/19 05:33:03;;;;;;;26.42;16.90;;;9.70;99.90;;;;;;5049690;28;20135;-63
2021/10/19 05:35:29;;;;;;;28.77;18.90;;;9.40;99.90;;;;;;5051797;28;20021;-64
2021/10/19 05:37:56;;;;;;;31.40;18.35;;;9.40;99.90;;;;;;5051204;28;20395;-64
2021/10/19 05:40:22;;;;;;;27.25;17.77;;;9.30;99.90;;;;;;5051895;28;20020;-65
2021/10/19 05:42:48;;;;;;;26.48;17.60;;;9.20;99.90;;;;;;5041822;28;20565;-64
2021/10/19 05:45:14;;;;;;;28.25;18.02;;;9.30;99.90;;;;;;5049431;28;20104;-65
2021/10/19 05:47:42;;;;;;;25.95;17.23;;;9.30;99.90;;;;;;5049621;28;20023;-65
2021/10/19 05:50:09;;;;;;;22.48;14.85;;;9.20;99.90;;;;;;5049781;28;20025;-65
2021/10/19 05:52:35;;;;;;;24.50;16.45;;;9.20;99.90;;;;;;5051711;28;20047;-64
2021/10/19 05:55:00;;;;;;;23.83;16.65;;;9.20;99.90;;;;;;5049260;28;20133;-63
2021/10/19 05:57:26;;;;;;;29.35;16.50;;;9.10;99.90;;;;;;5047756;28;20167;-63
2021/10/19 05:59:52;;;;;;;27.60;17.80;;;10.30;99.90;;;;;;5045974;28;20035;-67
2021/10/19 06:02:17;;;;;;;20.10;14.27;;;10.30;99.90;;;;;;5047947;28;20347;-66
2021/10/19 06:04:43;;;;;;;18.42;12.57;;;10.40;99.90;;;;;;5045189;28;20025;-65
2021/10/19 06:07:09;;;;;;;17.75;12.50;;;9.90;99.90;;;;;;5031883;28;20037;-64
2021/10/19 06:09:36;;;;;;;18.55;13.48;;;9.70;99.90;;;;;;5029475;28;20152;-65
2021/10/19 06:12:02;;;;;;;24.33;13.32;;;9.50;99.90;;;;;;5029305;28;20171;-65
2021/10/19 06:14:27;;;;;;;18.10;14.00;;;9.40;99.90;;;;;;5031068;28;20055;-65
2021/10/19 06:16:53;;;;;;;21.58;15.68;;;9.50;99.90;;;;;;5031038;28;20447;-65
2021/10/19 06:19:20;;;;;;;20.60;13.85;;;9.40;99.90;;;;;;5029400;28;20059;-66
2021/10/19 06:21:46;;;;;;;22.05;14.93;;;9.50;99.90;;;;;;5035884;28;20040;-74
2021/10/19 06:24:12;;;;;;;20.15;14.43;;;9.40;99.90;;;;;;5049780;28;20111;-65
2021/10/19 06:26:38;;;;;;;22.40;14.88;;;9.40;99.90;;;;;;5049353;28;20140;-66
2021/10/19 06:29:07;;;;;;;21.70;14.35;;;9.40;99.90;;;;;;5042293;28;20022;-66
2021/10/19 06:31:34;;;;;;;23.05;14.80;;;9.30;99.90;;;;;;5035662;28;20520;-66
2021/10/19 06:33:59;;;;;;;20.40;14.23;;;9.40;99.90;;;;;;5050261;28;20029;-66
2021/10/19 06:36:26;;;;;;;18.52;13.70;;;9.30;99.90;;;;;;5050428;28;20079;-66
2021/10/19 06:38:52;;;;;;;20.83;13.32;;;9.40;99.90;;;;;;5050460;28;20024;-65
2021/10/19 06:41:18;;;;;;;16.52;12.20;;;9.40;99.90;;;;;;5048763;28;20069;-65
2021/10/19 06:43:44;;;;;;;20.50;13.00;;;9.40;99.90;;;;;;5048678;28;20025;-64
2021/10/19 06:46:09;;;;;;;17.95;13.90;;;9.40;99.90;;;;;;5049911;28;20060;-66
2021/10/19 06:48:35;;;;;;;17.42;11.77;;;9.30;99.90;;;;;;5050872;28;20025;-65
2021/10/19 06:51:02;;;;;;;20.90;13.18;;;9.20;99.90;;;;;;5049661;28;20025;-66
2021/10/19 06:53:28;;;;;;;17.50;12.85;;;9.20;99.90;;;;;;5050715;28;20040;-66
2021/10/19 06:55:53;;;;;;;18.48;13.57;;;9.20;99.90;;;;;;5048459;28;20033;-66
2021/10/19 06:58:19;;;;;;;20.60;13.23;;;9.30;99.90;;;;;;5049215;28;20029;-66
2021/10/19 07:00:45;;;;;;;21.52;13.88;;;9.20;99.90;;;;;;5049402;28;20033;-65
2021/10/19 07:03:10;;;;;;;18.10;12.75;;;9.20;99.90;;;;;;5050524;28;20454;-65
2021/10/19 07:05:36;;;;;;;17.70;12.68;;;9.30;99.90;;;;;;5049940;28;20334;-65
2021/10/19 07:08:05;;;;;;;16.63;11.85;;;9.30;99.90;;;;;;5048575;28;20031;-65
2021/10/19 07:10:31;;;;;;;15.85;12.57;;;9.40;99.90;;;;;;5048816;28;20025;-65
2021/10/19 07:12:57;;;;;;;18.25;12.70;;;9.30;99.90;;;;;;5048647;28;20036;-66
2021/10/19 07:15:22;;;;;;;18.38;13.38;;;9.30;99.90;;;;;;5049490;28;20102;-66
2021/10/19 07:17:48;;;;;;;17.98;12.50;;;9.30;99.90;;;;;;5050528;28;20032;-74
2021/10/19 07:20:14;;;;;;;17.83;12.52;;;9.30;99.90;;;;;;5049352;28;20535;-66
2021/10/19 07:22:40;;;;;;;18.33;12.35;;;9.40;99.90;;;;;;5048903;28;20048;-66
2021/10/19 07:25:08;;;;;;;17.52;12.80;;;9.30;99.90;;;;;;5049587;28;20025;-65
2021/10/19 07:27:34;;;;;;;16.63;11.93;;;9.40;99.90;;;;;;5050813;28;20138;-66
2021/10/19 07:30:00;;;;;;;17.67;12.75;;;9.50;99.90;;;;;;5044172;28;20029;-65
2021/10/19 07:32:26;;;;;;;18.48;13.30;;;9.50;99.90;;;;;;5045340;28;20386;-65
2021/10/19 07:34:53;;;;;;;18.65;13.40;;;9.50;99.90;;;;;;5048948;28;20466;-66
2021/10/19 07:37:19;;;;;;;19.10;13.38;;;9.50;99.90;;;;;;5049236;28;20028;-65
2021/10/19 07:39:45;;;;;;;18.73;13.38;;;9.50;99.90;;;;;;5049237;28;20021;-65
2021/10/19 07:42:11;;;;;;;16.52;12.43;;;9.60;99.90;;;;;;5051675;28;20029;-65
2021/10/19 07:44:37;;;;;;;19.27;13.50;;;9.60;99.90;;;;;;5054163;28;20032;-65
2021/10/19 07:47:03;;;;;;;16.75;12.25;;;9.70;99.90;;;;;;5053430;28;20025;-66
2021/10/19 07:49:29;;;;;;;17.27;13.23;;;9.70;99.90;;;;;;5053191;28;20447;-65
2021/10/19 07:51:55;;;;;;;17.17;12.57;;;9.70;99.90;;;;;;5051370;28;20044;-64
2021/10/19 07:54:21;;;;;;;19.95;13.05;;;9.80;99.90;;;;;;5051768;28;20488;-65
2021/10/19 07:56:47;;;;;;;16.92;12.35;;;9.70;99.90;;;;;;5052186;28;20029;-64
2021/10/19 07:59:12;;;;;;;17.30;12.43;;;9.80;99.90;;;;;;5049784;28;20575;-65
2021/10/19 08:01:38;;;;;;;16.90;11.60;;;9.80;99.90;;;;;;5034709;28;20037;-65
2021/10/19 08:04:04;;;;;;;18.83;12.82;;;9.80;99.90;;;;;;5041394;28;20025;-64
2021/10/19 08:06:30;;;;;;;13.43;10.65;;;9.90;99.90;;;;;;5051900;28;20040;-65
2021/10/19 08:08:56;;;;;;;12.75;10.27;;;9.90;99.90;;;;;;5052517;28;20098;-65
2021/10/19 08:11:22;;;;;;;14.30;11.25;;;9.90;99.90;;;;;;5051576;28;20029;-65
2021/10/19 08:13:47;;;;;;;17.08;9.77;;;9.80;99.90;;;;;;5051834;28;20121;-61
2021/10/19 08:16:13;;;;;;;13.32;10.27;;;10.20;99.90;;;;;;5050905;28;20608;-60
2021/10/19 08:18:39;;;;;;;12.82;9.43;;;10.50;99.90;;;;;;5051579;28;20115;-61
2021/10/19 08:21:06;;;;;;;12.10;8.38;;;10.50;99.90;;;;;;5051902;28;20108;-61
2021/10/19 08:23:32;;;;;;;12.88;8.88;;;10.50;99.90;;;;;;5051608;28;20468;-66
2021/10/19 08:25:58;;;;;;;11.15;9.05;;;10.50;99.90;;;;;;5049219;28;20435;-66
2021/10/19 08:28:32;;;;;;;9.43;7.78;;;10.50;99.90;;;;;;5051400;28;20080;-65
2021/10/19 08:30:58;;;;;;;10.45;8.90;;;10.50;99.90;;;;;;5050957;28;20025;-66
2021/10/19 08:33:24;;;;;;;13.80;8.13;;;10.40;99.90;;;;;;5053366;28;20474;-66
2021/10/19 08:35:50;;;;;;;9.95;7.60;;;10.40;99.90;;;;;;5050728;28;20075;-66
2021/10/19 08:38:16;;;;;;;9.15;6.72;;;10.40;99.90;;;;;;5050801;28;20314;-67
2021/10/19 08:40:43;;;;;;;9.48;7.43;;;10.50;99.90;;;;;;5051793;28;20470;-66
2021/10/19 08:43:10;;;;;;;8.20;6.32;;;10.50;99.90;;;;;;5050496;28;20025;-65
2021/10/19 08:45:36;;;;;;;7.43;5.95;;;10.50;99.90;;;;;;5051017;28;20486;-65
2021/10/19 08:48:03;;;;;;;9.85;7.25;;;10.50;99.90;;;;;;5051457;28;20029;-66
2021/10/19 08:50:29;;;;;;;6.53;5.88;;;10.60;99.90;;;;;;5051093;28;20478;-65
2021/10/19 08:52:55;;;;;;;7.07;5.70;;;10.60;99.90;;;;;;5051813;28;20580;-74
2021/10/19 08:55:21;;;;;;;7.03;5.43;;;10.70;99.90;;;;;;5052399;28;20098;-66
2021/10/19 08:57:48;;;;;;;7.78;5.38;;;10.70;99.90;;;;;;5050872;28;20175;-64
2021/10/19 09:00:15;;;;;;;5.13;4.60;;;10.80;99.90;;;;;;5049963;28;20056;-66
2021/10/19 09:02:43;;;;;;;7.60;5.43;;;10.80;99.90;;;;;;5051676;28;20504;-65
2021/10/19 09:05:18;;;;;;;7.10;5.07;;;10.80;99.90;;;;;;5050220;28;20025;-64
2021/10/19 09:08:02;;;;;;;11.55;6.75;;;10.90;99.90;;;;;;5050667;28;20133;-62
2021/10/19 09:10:36;;;;;;;14.55;8.90;;;11.00;99.90;;;;;;5043955;28;20060;-61
2021/10/19 09:13:07;;;;;;;9.52;7.28;;;11.30;99.90;;;;;;5050017;28;20151;-59
2021/10/19 09:15:35;;;;;;;9.30;6.78;;;11.40;99.90;;;;;;5050531;28;20080;-61
2021/10/19 09:18:03;;;;;;;6.82;6.03;;;11.60;99.90;;;;;;5050946;28;20364;-66
2021/10/19 09:20:33;;;;;;;8.73;6.07;;;11.40;99.90;;;;;;5051651;28;20368;-66
2021/10/19 09:23:02;;;;;;;8.98;5.57;;;11.20;99.90;;;;;;5037431;28;20037;-73
2021/10/19 09:25:42;;;;;;;8.18;5.82;;;11.00;99.90;;;;;;5029909;28;20068;-65
2021/10/19 09:28:13;;;;;;;6.68;5.20;;;10.90;99.90;;;;;;5029694;28;20035;-65
2021/10/19 09:30:49;;;;;;;8.02;5.45;;;10.90;99.90;;;;;;5049138;28;20033;-65
2021/10/19 09:33:20;;;;;;;7.60;4.88;;;10.90;99.90;;;;;;5049572;28;20041;-64
2021/10/19 09:35:51;;;;;;;5.82;4.57;;;10.90;99.90;;;;;;5051325;28;20137;-66
2021/10/19 09:38:17;;;;;;;5.63;4.35;;;10.90;99.90;;;;;;5050798;28;20035;-65
2021/10/19 09:40:44;;;;;;;5.15;4.20;;;10.90;99.90;;;;;;5051369;28;20533;-65
2021/10/19 09:43:16;;;;;;;7.20;4.05;;;11.00;99.90;;;;;;5034945;28;20459;-66
2021/10/19 09:45:44;;;;;;;5.47;4.38;;;11.00;99.90;;;;;;5030107;28;20021;-65
2021/10/19 09:48:17;;;;;;;4.80;4.20;;;11.10;99.90;;;;;;5030719;28;20029;-66
2021/10/19 09:50:44;;;;;;;6.20;4.63;;;11.20;99.90;;;;;;5029733;28;20029;-66
2021/10/19 09:53:11;;;;;;;6.25;4.68;;;11.20;99.90;;;;;;5030756;28;20025;-65
2021/10/19 09:55:38;;;;;;;5.18;4.38;;;11.30;99.90;;;;;;5031348;28;20021;-66
2021/10/19 09:58:04;;;;;;;5.63;4.93;;;11.30;99.90;;;;;;5030076;28;20037;-68
2021/10/19 10:00:33;;;;;;;6.55;5.10;;;11.30;99.90;;;;;;5031445;28;20032;-67
2021/10/19 10:03:05;;;;;;;6.20;5.25;;;11.40;99.90;;;;;;5034876;28;20470;-73
2021/10/19 10:05:33;;;;;;;5.43;4.63;;;11.50;99.90;;;;;;5034501;28;20120;-67
2021/10/19 10:08:00;;;;;;;6.60;5.22;;;11.40;99.90;;;;;;5046659;28;20025;-74
2021/10/19 10:10:27;;;;;;;6.30;5.47;;;11.50;99.90;;;;;;5047337;28;20128;-66
2021/10/19 10:13:01;;;;;;;6.72;5.65;;;11.50;99.90;;;;;;5050076;28;20025;-66
2021/10/19 10:15:32;;;;;;;6.57;5.88;;;11.60;99.90;;;;;;5051054;28;20037;-65
2021/10/19 10:18:01;;;;;;;7.35;6.28;;;11.60;99.90;;;;;;5049871;28;20036;-66
2021/10/19 10:20:42;;;;;;;7.30;6.40;;;11.60;99.90;;;;;;5049673;28;20124;-66
2021/10/19 10:23:25;;;;;;;7.33;6.50;;;11.40;99.90;;;;;;5035603;28;20045;-66
2021/10/19 10:25:53;;;;;;;9.75;6.68;;;11.40;99.90;;;;;;5031170;28;20056;-65
2021/10/19 10:28:34;;;;;;;9.30;6.53;;;11.50;99.90;;;;;;5029549;28;20040;-65
2021/10/19 10:31:16;;;;;;;7.45;6.43;;;11.40;99.90;;;;;;5030366;28;20044;-66
2021/10/19 10:33:43;;;;;;;8.20;7.30;;;11.40;99.90;;;;;;5045423;28;20029;-66
2021/10/19 10:36:15;;;;;;;11.38;8.25;;;11.50;99.90;;;;;;5030302;28;20116;-65
2021/10/19 10:38:57;;;;;;;9.15;7.90;;;11.40;99.90;;;;;;5033618;28;20030;-67
2021/10/19 10:41:23;;;;;;;8.93;7.60;;;11.40;99.90;;;;;;5028364;28;20116;-65
2021/10/19 10:44:00;;;;;;;9.13;8.23;;;11.50;99.90;;;;;;5029383;28;20021;-66
2021/10/19 10:46:26;;;;;;;10.82;8.40;;;11.60;99.90;;;;;;5041944;28;20120;-65
2021/10/19 10:48:56;;;;;;;10.98;9.05;;;11.70;99.90;;;;;;5050826;28;20029;-66
2021/10/19 10:51:28;;;;;;;11.40;9.63;;;11.60;99.90;;;;;;5047932;28;20175;-66
2021/10/19 10:53:54;;;;;;;13.27;10.25;;;11.60;99.90;;;;;;5042636;28;20029;-65
2021/10/19 10:56:21;;;;;;;15.70;12.45;;;11.60;99.90;;;;;;5050011;28;20033;-66
2021/10/19 10:58:49;;;;;;;14.10;11.88;;;11.70;99.90;;;;;;5049144;28;20413;-65
2021/10/19 11:01:27;;;;;;;18.75;12.63;;;11.70;99.90;;;;;;5049639;28;20177;-66
2021/10/19 11:04:09;;;;;;;19.13;13.55;;;11.70;99.90;;;;;;5049153;28;20376;-66
2021/10/19 11:06:38;;;;;;;17.02;14.02;;;11.80;99.90;;;;;;5047652;28;20036;-66
2021/10/19 11:09:12;;;;;;;18.90;14.88;;;11.80;99.90;;;;;;5049457;28;20037;-73
2021/10/19 11:11:42;;;;;;;18.35;15.13;;;11.90;99.90;;;;;;5048167;28;20036;-66
2021/10/19 11:14:14;;;;;;;20.63;15.50;;;11.80;99.90;;;;;;5064707;28;20087;-65
2021/10/19 11:16:43;;;;;;;23.08;17.08;;;11.90;99.90;;;;;;5051825;28;20016;-66
2021/10/19 11:19:21;;;;;;;18.38;15.50;;;11.90;99.90;;;;;;5053304;28;20025;-65
2021/10/19 11:21:53;;;;;;;25.33;15.32;;;11.90;99.90;;;;;;5052530;28;20037;-67
2021/10/19 11:24:20;;;;;;;22.38;17.67;;;12.00;99.90;;;;;;5052231;28;20077;-68
2021/10/19 11:26:46;;;;;;;21.77;17.55;;;12.00;99.90;;;;;;5054504;28;20061;-66
2021/10/19 11:29:12;;;;;;;21.55;17.90;;;12.10;99.90;;;;;;5052327;28;20125;-66
2021/10/19 11:31:38;;;;;;;20.88;18.00;;;12.00;99.90;;;;;;5053039;28;20123;-65
2021/10/19 11:34:06;;;;;;;22.15;17.73;;;12.00;99.90;;;;;;5052513;28;20087;-74
2021/10/19 11:36:31;;;;;;;23.45;17.30;;;12.10;99.90;;;;;;5054396;28;20025;-66
2021/10/19 11:39:11;;;;;;;20.45;16.83;;;12.10;99.90;;;;;;5052214;28;20029;-67
2021/10/19 11:41:37;;;;;;;21.60;16.52;;;12.10;99.90;;;;;;5052925;28;20060;-66
2021/10/19 11:44:06;;;;;;;21.50;16.00;;;12.20;99.90;;;;;;5051991;28;20029;-66
2021/10/19 11:46:37;;;;;;;19.38;16.40;;;12.20;99.90;;;;;;5046721;28;20033;-67
2021/10/19 11:49:13;;;;;;;20.70;15.43;;;12.20;99.90;;;;;;5053355;28;20025;-68
2021/10/19 11:51:43;;;;;;;17.33;14.48;;;12.30;99.90;;;;;;5052313;28;20116;-67
2021/10/19 11:54:09;;;;;;;18.30;15.18;;;12.30;99.90;;;;;;5051737;28;20029;-70
2021/10/19 11:56:34;;;;;;;20.02;15.55;;;12.30;99.90;;;;;;5052557;28;20466;-66
2021/10/19 11:59:06;;;;;;;18.13;15.13;;;12.20;99.90;;;;;;5052517;28;20021;-66
2021/10/19 12:01:41;;;;;;;19.13;16.15;;;12.30;99.90;;;;;;5051896;28;20120;-68
2021/10/19 12:04:12;;;;;;;18.48;15.63;;;12.30;99.90;;;;;;5053276;28;20123;-76
2021/10/19 12:06:45;;;;;;;18.15;15.63;;;12.40;99.90;;;;;;5052457;28;20124;-67
2021/10/19 12:09:27;;;;;;;20.05;15.25;;;12.40;99.90;;;;;;5051791;28;20026;-72
2021/10/19 12:11:59;;;;;;;22.25;14.98;;;12.40;99.90;;;;;;5052168;28;20123;-67
2021/10/19 12:14:33;;;;;;;20.27;16.33;;;12.40;99.90;;;;;;5051551;28;20033;-66
2021/10/19 12:17:04;;;;;;;20.05;15.73;;;12.40;99.90;;;;;;5053657;28;20021;-66
2021/10/19 12:19:31;;;;;;;19.90;16.23;;;12.40;99.90;;;;;;5052742;28;20779;-66
2021/10/19 12:22:02;;;;;;;21.40;17.05;;;12.40;99.90;;;;;;5051831;28;20102;-66
2021/10/19 12:24:29;;;;;;;22.10;16.15;;;12.50;99.90;;;;;;5051497;28;20626;-66
2021/10/19 12:27:00;;;;;;;22.02;16.15;;;12.40;99.90;;;;;;5051097;28;20387;-66
2021/10/19 12:29:32;;;;;;;19.83;14.88;;;12.50;99.90;;;;;;5050977;28;20021;-65
2021/10/19 12:31:58;;;;;;;23.88;16.88;;;12.50;99.90;;;;;;5051538;28;20052;-66
2021/10/19 12:34:28;;;;;;;23.60;17.17;;;12.50;99.90;;;;;;5052120;28;20028;-66
2021/10/19 12:37:01;;;;;;;23.80;18.27;;;12.50;99.90;;;;;;5052654;28;20029;-66